sensor_id;sensor_type;location;lat;lon;timestamp;P1;durP1;ratioP1;P2;durP2;ratioP2
52244;SDS011;55759;51.586;-1.758;2023-04-24T00:01:28;40.10;;;16.20;;
52244;SDS011;55759;51.586;-1.758;2023-04-24T00:06:21;41.85;;;16.83;;
52244;SDS011;55759;51.586;-1.758;2023-04-24T00:08:48;35.17;;;15.75;;
52244;SDS011;55759;51.586;-1.758;2023-04-24T00:11:14;40.80;;;16.30;;
52244;SDS011;55759;51.586;-1.758;2023-04-24T00:13:39;37.47;;;16.33;;
52244;SDS011;55759;51.586;-1.758;2023-04-24T00:16:05;39.05;;;17.48;;
52244;SDS011;55759;51.586;-1.758;2023-04-24T00:18:31;41.35;;;17.52;;
52244;SDS011;55759;51.586;-1.758;2023-04-24T00:20:57;39.30;;;16.33;;
52244;SDS011;55759;51.586;-1.758;2023-04-24T00:23:22;42.22;;;17.45;;
52244;SDS011;55759;51.586;-1.758;2023-04-24T00:25:48;40.47;;;17.52;;
52244;SDS011;55759;51.586;-1.758;2023-04-24T00:28:14;45.30;;;16.30;;
52244;SDS011;55759;51.586;-1.758;2023-04-24T00:30:40;35.97;;;16.92;;
52244;SDS011;55759;51.586;-1.758;2023-04-24T00:33:06;37.17;;;16.75;;
52244;SDS011;55759;51.586;-1.758;2023-04-24T00:35:31;34.17;;;16.10;;
52244;SDS011;55759;51.586;-1.758;2023-04-24T00:37:57;38.90;;;16.25;;
52244;SDS011;55759;51.586;-1.758;2023-04-24T00:40:23;38.28;;;17.52;;
52244;SDS011;55759;51.586;-1.758;2023-04-24T00:42:48;37.67;;;16.27;;
52244;SDS011;55759;51.586;-1.758;2023-04-24T00:45:14;33.80;;;15.85;;
52244;SDS011;55759;51.586;-1.758;2023-04-24T00:47:40;36.78;;;15.25;;
52244;SDS011;55759;51.586;-1.758;2023-04-24T00:50:07;38.28;;;15.95;;
52244;SDS011;55759;51.586;-1.758;2023-04-24T00:52:33;36.33;;;16.15;;
52244;SDS011;55759;51.586;-1.758;2023-04-24T00:54:59;38.33;;;17.38;;
52244;SDS011;55759;51.586;-1.758;2023-04-24T00:57:25;36.40;;;16.23;;
52244;SDS011;55759;51.586;-1.758;2023-04-24T00:59:52;37.92;;;17.13;;
52244;SDS011;55759;51.586;-1.758;2023-04-24T01:02:18;38.90;;;17.15;;
52244;SDS011;55759;51.586;-1.758;2023-04-24T01:04:45;39.17;;;15.98;;
52244;SDS011;55759;51.586;-1.758;2023-04-24T01:07:11;36.05;;;16.38;;
52244;SDS011;55759;51.586;-1.758;2023-04-24T01:09:40;33.35;;;15.05;;
52244;SDS011;55759;51.586;-1.758;2023-04-24T01:12:07;36.10;;;15.30;;
52244;SDS011;55759;51.586;-1.758;2023-04-24T01:14:33;30.42;;;14.73;;
52244;SDS011;55759;51.586;-1.758;2023-04-24T01:16:58;33.47;;;15.23;;
52244;SDS011;55759;51.586;-1.758;2023-04-24T01:19:25;31.63;;;13.85;;
52244;SDS011;55759;51.586;-1.758;2023-04-24T01:21:52;29.20;;;13.85;;
52244;SDS011;55759;51.586;-1.758;2023-04-24T01:24:22;27.83;;;13.55;;
52244;SDS011;55759;51.586;-1.758;2023-04-24T01:26:48;26.23;;;14.13;;
52244;SDS011;55759;51.586;-1.758;2023-04-24T01:29:14;25.80;;;13.10;;
52244;SDS011;55759;51.586;-1.758;2023-04-24T01:31:40;26.13;;;12.57;;
52244;SDS011;55759;51.586;-1.758;2023-04-24T01:34:06;24.63;;;12.35;;
52244;SDS011;55759;51.586;-1.758;2023-04-24T01:36:33;28.33;;;13.38;;
52244;SDS011;55759;51.586;-1.758;2023-04-24T01:39:01;27.15;;;12.85;;
52244;SDS011;55759;51.586;-1.758;2023-04-24T01:41:27;24.00;;;12.20;;
52244;SDS011;55759;51.586;-1.758;2023-04-24T01:46:20;27.42;;;11.60;;
52244;SDS011;55759;51.586;-1.758;2023-04-24T01:48:46;23.67;;;12.30;;
52244;SDS011;55759;51.586;-1.758;2023-04-24T01:51:11;20.67;;;11.35;;
52244;SDS011;55759;51.586;-1.758;2023-04-24T01:53:37;23.55;;;11.60;;
52244;SDS011;55759;51.586;-1.758;2023-04-24T01:56:03;25.08;;;12.00;;
52244;SDS011;55759;51.586;-1.758;2023-04-24T02:00:56;21.88;;;10.77;;
52244;SDS011;55759;51.586;-1.758;2023-04-24T02:03:24;22.52;;;11.27;;
52244;SDS011;55759;51.586;-1.758;2023-04-24T02:05:51;22.02;;;11.55;;
52244;SDS011;55759;51.586;-1.758;2023-04-24T02:08:16;22.15;;;10.95;;
52244;SDS011;55759;51.586;-1.758;2023-04-24T02:10:42;26.15;;;11.25;;
52244;SDS011;55759;51.586;-1.758;2023-04-24T02:13:08;19.80;;;10.50;;
52244;SDS011;55759;51.586;-1.758;2023-04-24T02:15:33;19.23;;;10.05;;
52244;SDS011;55759;51.586;-1.758;2023-04-24T02:18:00;20.08;;;10.20;;
52244;SDS011;55759;51.586;-1.758;2023-04-24T02:20:26;20.90;;;9.95;;
52244;SDS011;55759;51.586;-1.758;2023-04-24T02:22:52;19.83;;;10.95;;
52244;SDS011;55759;51.586;-1.758;2023-04-24T02:25:18;17.45;;;9.55;;
52244;SDS011;55759;51.586;-1.758;2023-04-24T02:27:44;18.40;;;10.20;;
52244;SDS011;55759;51.586;-1.758;2023-04-24T02:30:10;20.30;;;10.63;;
52244;SDS011;55759;51.586;-1.758;2023-04-24T02:32:35;19.67;;;10.15;;
52244;SDS011;55759;51.586;-1.758;2023-04-24T02:35:01;19.60;;;9.52;;
52244;SDS011;55759;51.586;-1.758;2023-04-24T02:37:27;18.15;;;9.50;;
52244;SDS011;55759;51.586;-1.758;2023-04-24T02:39:52;16.10;;;9.07;;
52244;SDS011;55759;51.586;-1.758;2023-04-24T02:42:19;17.15;;;9.00;;
52244;SDS011;55759;51.586;-1.758;2023-04-24T02:44:44;18.55;;;9.23;;
52244;SDS011;55759;51.586;-1.758;2023-04-24T02:47:10;19.80;;;9.45;;
52244;SDS011;55759;51.586;-1.758;2023-04-24T02:49:36;16.83;;;8.63;;
52244;SDS011;55759;51.586;-1.758;2023-04-24T02:52:01;17.48;;;8.93;;
52244;SDS011;55759;51.586;-1.758;2023-04-24T02:54:27;20.48;;;9.40;;
52244;SDS011;55759;51.586;-1.758;2023-04-24T02:56:53;17.63;;;9.43;;
52244;SDS011;55759;51.586;-1.758;2023-04-24T02:59:18;16.48;;;7.82;;
52244;SDS011;55759;51.586;-1.758;2023-04-24T03:01:44;19.55;;;8.95;;
52244;SDS011;55759;51.586;-1.758;2023-04-24T03:04:10;14.60;;;8.43;;
52244;SDS011;55759;51.586;-1.758;2023-04-24T03:06:36;17.83;;;9.13;;
52244;SDS011;55759;51.586;-1.758;2023-04-24T03:09:02;16.52;;;8.68;;
52244;SDS011;55759;51.586;-1.758;2023-04-24T03:11:28;18.67;;;9.57;;
52244;SDS011;55759;51.586;-1.758;2023-04-24T03:13:54;19.38;;;9.25;;
52244;SDS011;55759;51.586;-1.758;2023-04-24T03:16:21;17.92;;;8.75;;
52244;SDS011;55759;51.586;-1.758;2023-04-24T03:18:47;17.70;;;9.18;;
52244;SDS011;55759;51.586;-1.758;2023-04-24T03:21:12;14.73;;;8.18;;
52244;SDS011;55759;51.586;-1.758;2023-04-24T03:23:38;17.30;;;8.48;;
52244;SDS011;55759;51.586;-1.758;2023-04-24T03:26:04;14.80;;;8.23;;
52244;SDS011;55759;51.586;-1.758;2023-04-24T03:28:30;17.55;;;8.48;;
52244;SDS011;55759;51.586;-1.758;2023-04-24T03:30:56;18.40;;;9.15;;
52244;SDS011;55759;51.586;-1.758;2023-04-24T03:33:21;18.25;;;8.65;;
52244;SDS011;55759;51.586;-1.758;2023-04-24T03:35:47;16.35;;;8.15;;
52244;SDS011;55759;51.586;-1.758;2023-04-24T03:38:13;14.43;;;7.93;;
52244;SDS011;55759;51.586;-1.758;2023-04-24T03:40:38;14.95;;;8.00;;
52244;SDS011;55759;51.586;-1.758;2023-04-24T03:43:04;14.25;;;7.82;;
52244;SDS011;55759;51.586;-1.758;2023-04-24T03:45:30;14.98;;;8.30;;
52244;SDS011;55759;51.586;-1.758;2023-04-24T03:47:55;15.68;;;8.20;;
52244;SDS011;55759;51.586;-1.758;2023-04-24T03:50:21;15.55;;;8.73;;
52244;SDS011;55759;51.586;-1.758;2023-04-24T03:52:47;14.80;;;8.10;;
52244;SDS011;55759;51.586;-1.758;2023-04-24T03:55:12;15.15;;;7.47;;
52244;SDS011;55759;51.586;-1.758;2023-04-24T03:57:40;17.60;;;8.93;;
52244;SDS011;55759;51.586;-1.758;2023-04-24T04:00:06;15.18;;;8.52;;
52244;SDS011;55759;51.586;-1.758;2023-04-24T04:04:57;18.08;;;8.23;;
52244;SDS011;55759;51.586;-1.758;2023-04-24T04:07:23;17.65;;;8.98;;
52244;SDS011;55759;51.586;-1.758;2023-04-24T04:09:49;16.98;;;8.68;;
52244;SDS011;55759;51.586;-1.758;2023-04-24T04:12:14;14.68;;;7.68;;
52244;SDS011;55759;51.586;-1.758;2023-04-24T04:14:40;19.98;;;8.75;;
52244;SDS011;55759;51.586;-1.758;2023-04-24T04:17:06;14.88;;;8.13;;
52244;SDS011;55759;51.586;-1.758;2023-04-24T04:19:32;16.10;;;8.65;;
52244;SDS011;55759;51.586;-1.758;2023-04-24T04:21:58;15.07;;;8.40;;
52244;SDS011;55759;51.586;-1.758;2023-04-24T04:24:24;16.00;;;8.18;;
52244;SDS011;55759;51.586;-1.758;2023-04-24T04:26:51;14.82;;;8.43;;
52244;SDS011;55759;51.586;-1.758;2023-04-24T04:29:17;16.58;;;8.88;;
52244;SDS011;55759;51.586;-1.758;2023-04-24T04:31:47;16.48;;;8.60;;
52244;SDS011;55759;51.586;-1.758;2023-04-24T04:34:13;16.70;;;8.55;;
52244;SDS011;55759;51.586;-1.758;2023-04-24T04:36:39;14.68;;;8.85;;
52244;SDS011;55759;51.586;-1.758;2023-04-24T04:39:06;15.73;;;8.80;;
52244;SDS011;55759;51.586;-1.758;2023-04-24T04:41:32;16.75;;;8.48;;
52244;SDS011;55759;51.586;-1.758;2023-04-24T04:44:00;15.77;;;8.90;;
52244;SDS011;55759;51.586;-1.758;2023-04-24T04:46:26;16.23;;;8.68;;
52244;SDS011;55759;51.586;-1.758;2023-04-24T04:48:55;17.17;;;9.07;;
52244;SDS011;55759;51.586;-1.758;2023-04-24T04:51:21;20.27;;;8.93;;
52244;SDS011;55759;51.586;-1.758;2023-04-24T04:53:47;18.80;;;9.60;;
52244;SDS011;55759;51.586;-1.758;2023-04-24T04:56:13;19.02;;;9.43;;
52244;SDS011;55759;51.586;-1.758;2023-04-24T04:58:38;19.98;;;10.35;;
52244;SDS011;55759;51.586;-1.758;2023-04-24T05:01:04;17.45;;;9.90;;
52244;SDS011;55759;51.586;-1.758;2023-04-24T05:03:30;24.52;;;10.35;;
52244;SDS011;55759;51.586;-1.758;2023-04-24T05:05:55;22.48;;;10.45;;
52244;SDS011;55759;51.586;-1.758;2023-04-24T05:08:22;19.33;;;10.45;;
52244;SDS011;55759;51.586;-1.758;2023-04-24T05:10:48;21.00;;;10.95;;
52244;SDS011;55759;51.586;-1.758;2023-04-24T05:13:14;21.60;;;11.30;;
52244;SDS011;55759;51.586;-1.758;2023-04-24T05:15:40;20.05;;;10.85;;
52244;SDS011;55759;51.586;-1.758;2023-04-24T05:18:05;24.63;;;11.55;;
52244;SDS011;55759;51.586;-1.758;2023-04-24T05:20:31;23.55;;;12.27;;
52244;SDS011;55759;51.586;-1.758;2023-04-24T05:22:57;23.92;;;11.75;;
52244;SDS011;55759;51.586;-1.758;2023-04-24T05:25:22;25.17;;;12.73;;
52244;SDS011;55759;51.586;-1.758;2023-04-24T05:27:48;29.02;;;12.65;;
52244;SDS011;55759;51.586;-1.758;2023-04-24T05:30:14;24.25;;;12.52;;
52244;SDS011;55759;51.586;-1.758;2023-04-24T05:32:40;28.33;;;13.35;;
52244;SDS011;55759;51.586;-1.758;2023-04-24T05:35:06;25.27;;;12.98;;
52244;SDS011;55759;51.586;-1.758;2023-04-24T05:37:32;24.75;;;13.07;;
52244;SDS011;55759;51.586;-1.758;2023-04-24T05:39:58;27.48;;;13.57;;
52244;SDS011;55759;51.586;-1.758;2023-04-24T05:42:23;30.85;;;14.07;;
52244;SDS011;55759;51.586;-1.758;2023-04-24T05:44:50;32.58;;;14.32;;
52244;SDS011;55759;51.586;-1.758;2023-04-24T05:47:15;31.80;;;14.52;;
52244;SDS011;55759;51.586;-1.758;2023-04-24T05:49:41;33.75;;;15.05;;
52244;SDS011;55759;51.586;-1.758;2023-04-24T05:52:07;31.88;;;13.90;;
52244;SDS011;55759;51.586;-1.758;2023-04-24T05:54:34;35.28;;;14.52;;
52244;SDS011;55759;51.586;-1.758;2023-04-24T05:57:00;31.92;;;14.85;;
52244;SDS011;55759;51.586;-1.758;2023-04-24T05:59:29;29.92;;;15.00;;
52244;SDS011;55759;51.586;-1.758;2023-04-24T06:01:55;28.95;;;14.32;;
52244;SDS011;55759;51.586;-1.758;2023-04-24T06:04:21;30.40;;;13.77;;
52244;SDS011;55759;51.586;-1.758;2023-04-24T06:06:47;25.60;;;13.80;;
52244;SDS011;55759;51.586;-1.758;2023-04-24T06:09:15;26.00;;;13.27;;
52244;SDS011;55759;51.586;-1.758;2023-04-24T06:11:42;28.42;;;13.90;;
52244;SDS011;55759;51.586;-1.758;2023-04-24T06:14:08;25.70;;;13.80;;
52244;SDS011;55759;51.586;-1.758;2023-04-24T06:16:34;24.65;;;12.30;;
52244;SDS011;55759;51.586;-1.758;2023-04-24T06:19:00;24.48;;;11.63;;
52244;SDS011;55759;51.586;-1.758;2023-04-24T06:21:25;26.63;;;12.57;;
52244;SDS011;55759;51.586;-1.758;2023-04-24T06:23:52;29.90;;;13.23;;
52244;SDS011;55759;51.586;-1.758;2023-04-24T06:26:19;24.65;;;13.10;;
52244;SDS011;55759;51.586;-1.758;2023-04-24T06:28:44;22.48;;;12.50;;
52244;SDS011;55759;51.586;-1.758;2023-04-24T06:31:10;21.90;;;12.13;;
52244;SDS011;55759;51.586;-1.758;2023-04-24T06:33:36;28.38;;;12.70;;
52244;SDS011;55759;51.586;-1.758;2023-04-24T06:36:02;26.17;;;11.80;;
52244;SDS011;55759;51.586;-1.758;2023-04-24T06:38:29;22.67;;;12.15;;
52244;SDS011;55759;51.586;-1.758;2023-04-24T06:40:54;37.92;;;18.90;;
52244;SDS011;55759;51.586;-1.758;2023-04-24T06:43:20;19.77;;;10.38;;
52244;SDS011;55759;51.586;-1.758;2023-04-24T06:45:46;22.02;;;11.07;;
52244;SDS011;55759;51.586;-1.758;2023-04-24T06:48:12;19.85;;;10.32;;
52244;SDS011;55759;51.586;-1.758;2023-04-24T06:50:37;19.50;;;10.32;;
52244;SDS011;55759;51.586;-1.758;2023-04-24T06:53:03;21.10;;;10.93;;
52244;SDS011;55759;51.586;-1.758;2023-04-24T06:55:29;19.90;;;10.98;;
52244;SDS011;55759;51.586;-1.758;2023-04-24T06:57:55;20.83;;;10.52;;
52244;SDS011;55759;51.586;-1.758;2023-04-24T07:00:20;22.45;;;10.57;;
52244;SDS011;55759;51.586;-1.758;2023-04-24T07:02:46;16.83;;;9.48;;
52244;SDS011;55759;51.586;-1.758;2023-04-24T07:05:12;18.05;;;10.30;;
52244;SDS011;55759;51.586;-1.758;2023-04-24T07:07:38;16.48;;;8.90;;
52244;SDS011;55759;51.586;-1.758;2023-04-24T07:10:05;20.92;;;10.13;;
52244;SDS011;55759;51.586;-1.758;2023-04-24T07:14:57;18.52;;;10.48;;
52244;SDS011;55759;51.586;-1.758;2023-04-24T07:17:23;21.05;;;10.93;;
52244;SDS011;55759;51.586;-1.758;2023-04-24T07:19:48;18.45;;;10.18;;
52244;SDS011;55759;51.586;-1.758;2023-04-24T07:22:14;19.75;;;10.35;;
52244;SDS011;55759;51.586;-1.758;2023-04-24T07:24:43;18.95;;;10.10;;
52244;SDS011;55759;51.586;-1.758;2023-04-24T07:27:09;19.00;;;9.85;;
52244;SDS011;55759;51.586;-1.758;2023-04-24T07:29:35;18.15;;;9.75;;
52244;SDS011;55759;51.586;-1.758;2023-04-24T07:32:00;18.92;;;9.75;;
52244;SDS011;55759;51.586;-1.758;2023-04-24T07:34:26;15.98;;;8.77;;
52244;SDS011;55759;51.586;-1.758;2023-04-24T07:36:52;16.00;;;8.82;;
52244;SDS011;55759;51.586;-1.758;2023-04-24T07:39:18;17.02;;;9.15;;
52244;SDS011;55759;51.586;-1.758;2023-04-24T07:41:43;14.43;;;8.38;;
52244;SDS011;55759;51.586;-1.758;2023-04-24T07:44:09;16.50;;;8.55;;
52244;SDS011;55759;51.586;-1.758;2023-04-24T07:46:35;13.75;;;8.25;;
52244;SDS011;55759;51.586;-1.758;2023-04-24T07:49:01;13.27;;;8.10;;
52244;SDS011;55759;51.586;-1.758;2023-04-24T07:51:26;12.13;;;6.55;;
52244;SDS011;55759;51.586;-1.758;2023-04-24T07:53:53;12.73;;;6.32;;
52244;SDS011;55759;51.586;-1.758;2023-04-24T07:56:20;11.40;;;6.43;;
52244;SDS011;55759;51.586;-1.758;2023-04-24T07:58:46;11.88;;;5.65;;
52244;SDS011;55759;51.586;-1.758;2023-04-24T08:01:11;12.45;;;6.53;;
52244;SDS011;55759;51.586;-1.758;2023-04-24T08:03:37;12.93;;;6.60;;
52244;SDS011;55759;51.586;-1.758;2023-04-24T08:06:03;11.15;;;5.82;;
52244;SDS011;55759;51.586;-1.758;2023-04-24T08:08:29;18.15;;;8.68;;
52244;SDS011;55759;51.586;-1.758;2023-04-24T08:10:55;14.68;;;6.75;;
52244;SDS011;55759;51.586;-1.758;2023-04-24T08:13:21;14.23;;;6.15;;
52244;SDS011;55759;51.586;-1.758;2023-04-24T08:15:46;10.77;;;6.20;;
52244;SDS011;55759;51.586;-1.758;2023-04-24T08:18:12;10.20;;;5.97;;
52244;SDS011;55759;51.586;-1.758;2023-04-24T08:20:38;10.55;;;6.20;;
52244;SDS011;55759;51.586;-1.758;2023-04-24T08:23:04;12.40;;;5.97;;
52244;SDS011;55759;51.586;-1.758;2023-04-24T08:25:30;10.70;;;5.97;;
52244;SDS011;55759;51.586;-1.758;2023-04-24T08:27:55;11.27;;;5.40;;
52244;SDS011;55759;51.586;-1.758;2023-04-24T08:30:21;12.88;;;5.65;;
52244;SDS011;55759;51.586;-1.758;2023-04-24T08:32:47;12.77;;;5.55;;
52244;SDS011;55759;51.586;-1.758;2023-04-24T08:35:13;11.07;;;5.95;;
52244;SDS011;55759;51.586;-1.758;2023-04-24T08:37:39;11.57;;;6.35;;
52244;SDS011;55759;51.586;-1.758;2023-04-24T08:40:14;11.82;;;6.60;;
52244;SDS011;55759;51.586;-1.758;2023-04-24T08:42:44;8.95;;;5.47;;
52244;SDS011;55759;51.586;-1.758;2023-04-24T08:45:11;10.40;;;5.63;;
52244;SDS011;55759;51.586;-1.758;2023-04-24T08:47:37;12.43;;;6.20;;
52244;SDS011;55759;51.586;-1.758;2023-04-24T08:50:04;11.85;;;6.32;;
52244;SDS011;55759;51.586;-1.758;2023-04-24T08:52:32;15.02;;;5.75;;
52244;SDS011;55759;51.586;-1.758;2023-04-24T08:54:59;10.35;;;5.72;;
52244;SDS011;55759;51.586;-1.758;2023-04-24T08:57:26;9.40;;;5.55;;
52244;SDS011;55759;51.586;-1.758;2023-04-24T08:59:53;10.30;;;5.85;;
52244;SDS011;55759;51.586;-1.758;2023-04-24T09:02:19;10.50;;;5.95;;
52244;SDS011;55759;51.586;-1.758;2023-04-24T09:08:09;9.45;;;5.53;;
52244;SDS011;55759;51.586;-1.758;2023-04-24T09:10:36;11.90;;;5.82;;
52244;SDS011;55759;51.586;-1.758;2023-04-24T09:13:02;10.40;;;6.07;;
52244;SDS011;55759;51.586;-1.758;2023-04-24T09:15:27;8.63;;;5.63;;
52244;SDS011;55759;51.586;-1.758;2023-04-24T09:20:20;11.43;;;6.32;;
52244;SDS011;55759;51.586;-1.758;2023-04-24T09:22:46;11.38;;;5.70;;
52244;SDS011;55759;51.586;-1.758;2023-04-24T09:25:12;11.35;;;6.22;;
52244;SDS011;55759;51.586;-1.758;2023-04-24T09:27:42;10.90;;;6.25;;
52244;SDS011;55759;51.586;-1.758;2023-04-24T09:30:09;11.50;;;6.03;;
52244;SDS011;55759;51.586;-1.758;2023-04-24T09:32:36;12.30;;;6.13;;
52244;SDS011;55759;51.586;-1.758;2023-04-24T09:35:09;11.90;;;5.63;;
52244;SDS011;55759;51.586;-1.758;2023-04-24T09:37:35;9.00;;;5.32;;
52244;SDS011;55759;51.586;-1.758;2023-04-24T09:42:53;10.88;;;5.30;;
52244;SDS011;55759;51.586;-1.758;2023-04-24T09:45:22;10.93;;;5.60;;
52244;SDS011;55759;51.586;-1.758;2023-04-24T09:47:52;10.38;;;5.32;;
52244;SDS011;55759;51.586;-1.758;2023-04-24T09:50:21;12.77;;;6.13;;
52244;SDS011;55759;51.586;-1.758;2023-04-24T09:52:56;11.93;;;5.57;;
52244;SDS011;55759;51.586;-1.758;2023-04-24T09:55:22;9.63;;;5.55;;
52244;SDS011;55759;51.586;-1.758;2023-04-24T10:00:17;13.88;;;5.82;;
52244;SDS011;55759;51.586;-1.758;2023-04-24T10:02:44;12.35;;;6.32;;
52244;SDS011;55759;51.586;-1.758;2023-04-24T10:05:11;13.13;;;6.70;;
52244;SDS011;55759;51.586;-1.758;2023-04-24T10:07:42;12.43;;;5.82;;
52244;SDS011;55759;51.586;-1.758;2023-04-24T10:10:09;9.88;;;5.90;;
52244;SDS011;55759;51.586;-1.758;2023-04-24T10:12:35;10.65;;;5.82;;
52244;SDS011;55759;51.586;-1.758;2023-04-24T10:17:27;10.85;;;5.90;;
52244;SDS011;55759;51.586;-1.758;2023-04-24T10:19:54;12.13;;;6.18;;
52244;SDS011;55759;51.586;-1.758;2023-04-24T10:24:46;11.15;;;5.60;;
52244;SDS011;55759;51.586;-1.758;2023-04-24T10:27:13;12.02;;;6.10;;
52244;SDS011;55759;51.586;-1.758;2023-04-24T10:29:40;11.15;;;5.80;;
52244;SDS011;55759;51.586;-1.758;2023-04-24T10:32:08;10.93;;;6.68;;
52244;SDS011;55759;51.586;-1.758;2023-04-24T10:34:35;10.95;;;5.63;;
52244;SDS011;55759;51.586;-1.758;2023-04-24T10:37:01;12.93;;;5.85;;
52244;SDS011;55759;51.586;-1.758;2023-04-24T10:39:28;13.23;;;6.50;;
52244;SDS011;55759;51.586;-1.758;2023-04-24T10:41:55;12.13;;;6.18;;
52244;SDS011;55759;51.586;-1.758;2023-04-24T10:44:24;12.68;;;6.70;;
52244;SDS011;55759;51.586;-1.758;2023-04-24T10:46:54;11.90;;;6.50;;
52244;SDS011;55759;51.586;-1.758;2023-04-24T10:49:28;12.25;;;5.75;;
52244;SDS011;55759;51.586;-1.758;2023-04-24T10:51:57;14.07;;;6.97;;
52244;SDS011;55759;51.586;-1.758;2023-04-24T10:57:25;19.08;;;7.25;;
52244;SDS011;55759;51.586;-1.758;2023-04-24T10:59:48;18.17;;;7.95;;
52244;SDS011;55759;51.586;-1.758;2023-04-24T11:02:15;15.25;;;7.82;;
52244;SDS011;55759;51.586;-1.758;2023-04-24T11:04:42;17.98;;;7.95;;
52244;SDS011;55759;51.586;-1.758;2023-04-24T11:09:35;18.42;;;8.43;;
52244;SDS011;55759;51.586;-1.758;2023-04-24T11:12:05;18.40;;;8.05;;
52244;SDS011;55759;51.586;-1.758;2023-04-24T11:17:38;20.15;;;8.88;;
52244;SDS011;55759;51.586;-1.758;2023-04-24T11:20:09;18.27;;;7.82;;
52244;SDS011;55759;51.586;-1.758;2023-04-24T11:22:37;23.77;;;8.30;;
52244;SDS011;55759;51.586;-1.758;2023-04-24T11:25:07;22.73;;;8.65;;
52244;SDS011;55759;51.586;-1.758;2023-04-24T11:27:41;17.70;;;7.28;;
52244;SDS011;55759;51.586;-1.758;2023-04-24T11:30:08;21.88;;;7.00;;
52244;SDS011;55759;51.586;-1.758;2023-04-24T11:32:36;17.88;;;6.38;;
52244;SDS011;55759;51.586;-1.758;2023-04-24T11:35:08;18.92;;;6.72;;
52244;SDS011;55759;51.586;-1.758;2023-04-24T11:37:39;17.77;;;6.72;;
52244;SDS011;55759;51.586;-1.758;2023-04-24T11:40:06;21.58;;;6.70;;
52244;SDS011;55759;51.586;-1.758;2023-04-24T11:42:34;16.58;;;6.70;;
52244;SDS011;55759;51.586;-1.758;2023-04-24T11:45:02;14.60;;;5.80;;
52244;SDS011;55759;51.586;-1.758;2023-04-24T11:47:36;14.77;;;6.32;;
52244;SDS011;55759;51.586;-1.758;2023-04-24T11:52:29;10.10;;;5.22;;
52244;SDS011;55759;51.586;-1.758;2023-04-24T11:54:55;16.88;;;6.45;;
52244;SDS011;55759;51.586;-1.758;2023-04-24T11:57:22;15.32;;;6.03;;
52244;SDS011;55759;51.586;-1.758;2023-04-24T11:59:51;12.50;;;6.30;;
52244;SDS011;55759;51.586;-1.758;2023-04-24T12:02:23;13.82;;;6.28;;
52244;SDS011;55759;51.586;-1.758;2023-04-24T12:04:50;15.68;;;6.72;;
52244;SDS011;55759;51.586;-1.758;2023-04-24T12:07:17;23.75;;;6.78;;
52244;SDS011;55759;51.586;-1.758;2023-04-24T12:12:12;21.10;;;7.43;;
52244;SDS011;55759;51.586;-1.758;2023-04-24T12:14:44;19.88;;;6.97;;
52244;SDS011;55759;51.586;-1.758;2023-04-24T12:17:14;18.40;;;7.35;;
52244;SDS011;55759;51.586;-1.758;2023-04-24T12:19:44;19.77;;;8.55;;
52244;SDS011;55759;51.586;-1.758;2023-04-24T12:22:13;16.55;;;7.40;;
52244;SDS011;55759;51.586;-1.758;2023-04-24T12:27:25;21.17;;;7.93;;
52244;SDS011;55759;51.586;-1.758;2023-04-24T12:29:56;23.02;;;7.80;;
52244;SDS011;55759;51.586;-1.758;2023-04-24T12:32:23;17.48;;;7.43;;
52244;SDS011;55759;51.586;-1.758;2023-04-24T12:34:53;23.92;;;9.52;;
52244;SDS011;55759;51.586;-1.758;2023-04-24T12:37:19;27.48;;;9.70;;
52244;SDS011;55759;51.586;-1.758;2023-04-24T12:39:57;21.60;;;8.95;;
52244;SDS011;55759;51.586;-1.758;2023-04-24T12:42:41;23.13;;;8.65;;
52244;SDS011;55759;51.586;-1.758;2023-04-24T12:45:08;21.38;;;8.20;;
52244;SDS011;55759;51.586;-1.758;2023-04-24T12:47:37;23.17;;;8.68;;
52244;SDS011;55759;51.586;-1.758;2023-04-24T12:50:03;25.83;;;8.50;;
52244;SDS011;55759;51.586;-1.758;2023-04-24T12:52:30;26.55;;;10.23;;
52244;SDS011;55759;51.586;-1.758;2023-04-24T12:54:57;27.20;;;9.57;;
52244;SDS011;55759;51.586;-1.758;2023-04-24T12:57:26;21.85;;;8.55;;
52244;SDS011;55759;51.586;-1.758;2023-04-24T12:59:53;19.67;;;8.07;;
52244;SDS011;55759;51.586;-1.758;2023-04-24T13:02:21;22.80;;;8.95;;
52244;SDS011;55759;51.586;-1.758;2023-04-24T13:04:48;21.55;;;8.20;;
52244;SDS011;55759;51.586;-1.758;2023-04-24T13:07:14;16.98;;;8.00;;
52244;SDS011;55759;51.586;-1.758;2023-04-24T13:12:07;22.98;;;8.52;;
52244;SDS011;55759;51.586;-1.758;2023-04-24T13:14:33;19.85;;;9.02;;
52244;SDS011;55759;51.586;-1.758;2023-04-24T13:17:00;18.52;;;7.10;;
52244;SDS011;55759;51.586;-1.758;2023-04-24T13:19:26;26.45;;;9.63;;
52244;SDS011;55759;51.586;-1.758;2023-04-24T13:21:53;23.70;;;8.80;;
52244;SDS011;55759;51.586;-1.758;2023-04-24T13:24:21;24.48;;;11.70;;
52244;SDS011;55759;51.586;-1.758;2023-04-24T13:26:50;19.80;;;8.50;;
52244;SDS011;55759;51.586;-1.758;2023-04-24T13:29:17;21.95;;;9.50;;
52244;SDS011;55759;51.586;-1.758;2023-04-24T13:31:42;25.92;;;9.95;;
52244;SDS011;55759;51.586;-1.758;2023-04-24T13:34:08;26.05;;;9.93;;
52244;SDS011;55759;51.586;-1.758;2023-04-24T13:36:34;26.45;;;10.60;;
52244;SDS011;55759;51.586;-1.758;2023-04-24T13:39:00;23.27;;;9.95;;
52244;SDS011;55759;51.586;-1.758;2023-04-24T13:41:26;25.52;;;9.73;;
52244;SDS011;55759;51.586;-1.758;2023-04-24T13:43:52;29.02;;;10.48;;
52244;SDS011;55759;51.586;-1.758;2023-04-24T13:46:17;23.77;;;9.88;;
52244;SDS011;55759;51.586;-1.758;2023-04-24T13:48:43;21.67;;;9.98;;
52244;SDS011;55759;51.586;-1.758;2023-04-24T13:51:09;20.67;;;8.48;;
52244;SDS011;55759;51.586;-1.758;2023-04-24T13:56:03;18.52;;;8.70;;
52244;SDS011;55759;51.586;-1.758;2023-04-24T13:58:30;21.15;;;8.77;;
52244;SDS011;55759;51.586;-1.758;2023-04-24T14:00:57;17.45;;;8.15;;
52244;SDS011;55759;51.586;-1.758;2023-04-24T14:03:22;17.75;;;7.75;;
52244;SDS011;55759;51.586;-1.758;2023-04-24T14:05:48;14.98;;;7.32;;
52244;SDS011;55759;51.586;-1.758;2023-04-24T14:08:14;15.57;;;7.68;;
52244;SDS011;55759;51.586;-1.758;2023-04-24T14:10:40;9.93;;;4.93;;
52244;SDS011;55759;51.586;-1.758;2023-04-24T14:13:07;9.93;;;4.68;;
52244;SDS011;55759;51.586;-1.758;2023-04-24T14:15:35;13.82;;;6.15;;
52244;SDS011;55759;51.586;-1.758;2023-04-24T14:18:01;13.77;;;6.32;;
52244;SDS011;55759;51.586;-1.758;2023-04-24T14:20:28;12.98;;;6.60;;
52244;SDS011;55759;51.586;-1.758;2023-04-24T14:22:54;14.90;;;7.53;;
52244;SDS011;55759;51.586;-1.758;2023-04-24T14:25:19;11.32;;;5.97;;
52244;SDS011;55759;51.586;-1.758;2023-04-24T14:27:47;10.80;;;5.18;;
52244;SDS011;55759;51.586;-1.758;2023-04-24T14:30:13;10.70;;;4.07;;
52244;SDS011;55759;51.586;-1.758;2023-04-24T14:32:40;10.13;;;5.18;;
52244;SDS011;55759;51.586;-1.758;2023-04-24T14:35:06;11.18;;;5.55;;
52244;SDS011;55759;51.586;-1.758;2023-04-24T14:37:35;7.90;;;4.22;;
52244;SDS011;55759;51.586;-1.758;2023-04-24T14:40:01;8.75;;;4.80;;
52244;SDS011;55759;51.586;-1.758;2023-04-24T14:42:29;7.13;;;4.32;;
52244;SDS011;55759;51.586;-1.758;2023-04-24T14:44:55;7.10;;;3.53;;
52244;SDS011;55759;51.586;-1.758;2023-04-24T14:47:20;6.18;;;3.40;;
52244;SDS011;55759;51.586;-1.758;2023-04-24T14:49:47;8.40;;;4.25;;
52244;SDS011;55759;51.586;-1.758;2023-04-24T14:52:16;5.53;;;3.58;;
52244;SDS011;55759;51.586;-1.758;2023-04-24T14:54:42;3.95;;;2.97;;
52244;SDS011;55759;51.586;-1.758;2023-04-24T14:57:08;5.63;;;3.17;;
52244;SDS011;55759;51.586;-1.758;2023-04-24T14:59:34;5.55;;;2.80;;
52244;SDS011;55759;51.586;-1.758;2023-04-24T15:02:00;5.50;;;3.00;;
52244;SDS011;55759;51.586;-1.758;2023-04-24T15:04:26;4.18;;;2.63;;